Dellwood, Wisconsin
Current Conditions -  °F | °C
As of 3:58 PM on Thursday 23 Oct 2014 (Local Time) from KVOK Reporting Station
Drizzle Drizzle  
Wind Chill: 48°   Ceiling: 600
Heat Index: 48°   Visibility: 6mi
Dew Point: 48°   Wind: 2mph
Humidity: 100%   Direction: 170°S
Pressure: 30.03"   Gusts: NA
Location:  43.98°N, 89.94°W
Report Text: KVOK 232058Z 17002KT 6SM -DZ BR OVC006 09/09 A3003 RMK AO2A CIG 005V007 SLP178 60011 55008
Loading
Personal Weather Stations






























Interactive Weather Map
Tropical Storm Tracking
New forecast layout! Learn more

10-Day Weather Forecast

Advertisements
Track Severe Weather on mobile